Time;durP1;ratioP1;P1;durP2;ratioP2;P2;SDS_P1;SDS_P2;PMS_P1;PMS_P2;Temp;Humidity;BMP_temperature;BMP_pressure;BME280_temperature;BME280_humidity;BME280_pressure;Samples;Min_cycle;Max_cycle;Signal;HPM_P1;HPM_P2
2022/09/13 00:00:10;;;;;;;19.15;16.38;;;;;;;16.72;100.00;164938.06;4991950;28;20042;-67
2022/09/13 00:02:36;;;;;;;21.05;18.70;;;;;;;16.71;100.00;164936.75;4993287;28;20026;-66
2022/09/13 00:05:01;;;;;;;20.88;18.67;;;;;;;16.74;100.00;164944.84;4991903;28;20034;-66
2022/09/13 00:07:26;;;;;;;16.65;14.88;;;;;;;16.72;100.00;164939.41;4993633;28;20085;-66
2022/09/13 00:09:52;;;;;;;17.90;15.73;;;;;;;16.73;100.00;164942.13;4991468;28;20045;-65
2022/09/13 00:12:17;;;;;;;21.00;18.58;;;;;;;16.69;100.00;164931.31;4993129;28;20034;-65
2022/09/13 00:14:42;;;;;;;20.08;17.88;;;;;;;16.70;100.00;164932.66;4991899;28;20046;-65
2022/09/13 00:17:08;;;;;;;17.98;16.08;;;;;;;16.72;100.00;164938.06;4992753;28;20532;-64
2022/09/13 00:19:33;;;;;;;24.27;18.27;;;;;;;16.72;100.00;164939.41;4991933;28;20490;-63
2022/09/13 00:21:58;;;;;;;24.98;17.08;;;;;;;16.73;100.00;164940.78;4993040;28;20046;-64
2022/09/13 00:24:24;;;;;;;19.08;16.55;;;;;;;16.75;100.00;164946.22;4991590;28;20053;-64
2022/09/13 00:26:49;;;;;;;22.00;16.90;;;;;;;16.76;100.00;164950.28;4993012;28;20041;-64
2022/09/13 00:29:15;;;;;;;22.50;19.25;;;;;;;16.79;100.00;164958.38;4991466;28;20042;-64
2022/09/13 00:31:40;;;;;;;22.08;19.90;;;;;;;16.81;100.00;164963.81;4992603;28;20585;-64
2022/09/13 00:34:05;;;;;;;22.05;18.70;;;;;;;16.80;100.00;164961.09;4991422;28;20038;-64
2022/09/13 00:36:31;;;;;;;20.77;18.77;;;;;;;16.83;100.00;164966.53;4992705;28;20026;-64
2022/09/13 00:38:56;;;;;;;21.83;19.52;;;;;;;16.84;100.00;164969.25;4990926;28;20097;-64
2022/09/13 00:41:22;;;;;;;21.10;18.83;;;;;;;16.86;100.00;164976.00;4992735;28;20034;-64
2022/09/13 00:43:53;;;;;;;21.63;19.42;;;;;;;16.86;100.00;164974.69;4991189;28;20050;-63
2022/09/13 00:46:33;;;;;;;19.98;17.42;;;;;;;16.87;100.00;164977.34;4992485;28;20022;-64
2022/09/13 00:49:13;;;;;;;24.45;20.35;;;;;;;16.87;100.00;164977.34;4991195;28;20513;-64
2022/09/13 00:51:42;;;;;;;23.88;21.35;;;;;;;16.85;100.00;164971.97;4992580;28;20097;-64
2022/09/13 00:54:08;;;;;;;25.83;20.77;;;;;;;16.85;100.00;164971.97;4990832;28;20038;-64
2022/09/13 00:56:40;;;;;;;23.67;19.45;;;;;;;16.86;100.00;164976.00;4992246;28;20030;-66
2022/09/13 00:59:20;;;;;;;23.85;21.45;;;;;;;16.90;100.00;164985.50;4991160;28;20046;-65
2022/09/13 01:01:53;;;;;;;22.73;20.00;;;;;;;16.89;100.00;164984.16;4992343;28;20030;-65
2022/09/13 01:04:21;;;;;;;27.90;20.98;;;;;;;16.92;100.00;164990.94;4990993;28;20042;-65
2022/09/13 01:06:50;;;;;;;24.40;20.45;;;;;;;16.95;100.00;164999.06;4992391;28;20027;-65
2022/09/13 01:09:16;;;;;;;21.83;19.63;;;;;;;16.96;100.00;165001.78;4990505;28;20034;-65
2022/09/13 01:11:49;;;;;;;25.98;20.60;;;;;;;16.97;100.00;165004.50;4992295;28;20377;-65
2022/09/13 01:14:19;;;;;;;22.88;20.50;;;;;;;16.98;100.00;165007.22;4990696;28;20073;-67
2022/09/13 01:16:44;;;;;;;28.77;20.88;;;;;;;17.00;100.00;165012.66;4991884;28;20038;-67
2022/09/13 01:19:09;;;;;;;22.95;20.48;;;;;;;17.02;100.00;165016.72;4990674;28;20126;-67
2022/09/13 01:22:11;;;;;;;25.83;21.60;;;;;;;16.98;100.00;165007.22;4992244;28;20375;-67
2022/09/13 01:25:02;;;;;;;26.95;21.73;;;;;;;16.92;100.00;164990.94;4990387;28;20070;-67
2022/09/13 01:27:37;;;;;;;29.92;22.45;;;;;;;16.92;100.00;164990.94;4992035;28;20030;-67
2022/09/13 01:30:13;;;;;;;28.42;22.70;;;;;;;16.92;100.00;164990.94;4990457;28;20050;-67
2022/09/13 01:33:09;;;;;;;23.88;20.58;;;;;;;16.94;100.00;164996.41;4991698;28;20113;-67
2022/09/13 01:35:50;;;;;;;23.20;20.85;;;;;;;16.94;100.00;164997.75;4990220;28;20046;-67
2022/09/13 01:38:47;;;;;;;25.27;22.63;;;;;;;16.85;100.00;164971.97;4991234;28;20041;-66
2022/09/13 01:41:53;;;;;;;25.05;21.55;;;;;;;16.87;100.00;164978.72;4990451;28;20051;-66
2022/09/13 01:44:30;;;;;;;27.02;22.42;;;;;;;16.85;100.00;164971.97;4990443;28;20053;-66
2022/09/13 01:47:26;;;;;;;24.48;21.98;;;;;;;16.77;100.00;164953.00;4991489;28;20077;-65
2022/09/13 01:50:11;;;;;;;25.35;22.50;;;;;;;16.72;100.00;164939.41;4990522;28;20042;-65
2022/09/13 01:52:46;;;;;;;27.58;24.67;;;;;;;16.63;100.00;164915.06;4991784;28;20050;-65
2022/09/13 01:55:26;;;;;;;25.05;22.35;;;;;;;16.54;100.00;164890.66;4989415;28;20517;-65
2022/09/13 01:58:18;;;;;;;27.63;23.30;;;;;;;16.53;100.00;164889.28;4991232;28;20113;-66
2022/09/13 02:00:50;;;;;;;27.83;24.52;;;;;;;16.56;100.00;164896.09;4990058;28;20054;-65
2022/09/13 02:03:28;;;;;;;26.20;23.42;;;;;;;16.61;100.00;164910.97;4991819;28;20070;-65
2022/09/13 02:05:56;;;;;;;;;;;;;;;16.63;100.00;164915.06;4990599;28;20531;-66
2022/09/13 02:08:33;;;;;;;25.40;22.70;;;;;;;16.59;100.00;164904.19;4991620;28;19913;-66
2022/09/13 02:11:13;;;;;;;28.75;23.63;;;;;;;16.48;100.00;164877.13;4969872;28;20485;-64
2022/09/13 02:13:45;;;;;;;32.25;28.60;;;;;;;16.37;100.00;164847.31;4953847;28;20105;-66
2022/09/13 02:16:17;;;;;;;33.70;29.13;;;;;;;16.46;100.00;164871.72;4990876;28;20421;-69
2022/09/13 02:18:47;;;;;;;34.25;28.83;;;;;;;16.48;100.00;164877.13;4990143;28;20109;-66
2022/09/13 02:21:21;;;;;;;32.75;29.27;;;;;;;16.54;100.00;164890.66;4991313;28;20030;-67
2022/09/13 02:23:52;;;;;;;33.30;29.17;;;;;;;16.55;100.00;164893.38;4989920;28;20054;-66
2022/09/13 02:26:20;;;;;;;36.22;27.67;;;;;;;16.50;100.00;164882.53;4991715;28;20026;-67
2022/09/13 02:28:53;;;;;;;35.85;30.73;;;;;;;16.52;100.00;164885.22;4989752;28;20022;-67
2022/09/13 02:31:27;;;;;;;31.77;27.80;;;;;;;16.53;100.00;164889.28;4991050;28;20133;-66
2022/09/13 02:34:02;;;;;;;29.10;26.00;;;;;;;16.47;100.00;164874.41;4989733;28;20097;-65
2022/09/13 02:36:32;;;;;;;34.85;27.05;;;;;;;16.34;100.00;164839.22;4991621;28;20153;-65
2022/09/13 02:39:04;;;;;;;33.60;27.85;;;;;;;16.33;100.00;164836.50;4989005;28;20052;-65
2022/09/13 02:41:59;;;;;;;32.25;27.45;;;;;;;16.47;100.00;164874.41;4991659;28;20386;-65
2022/09/13 02:44:30;;;;;;;35.55;31.15;;;;;;;16.46;100.00;164871.72;4989620;28;20544;-66
2022/09/13 02:47:23;;;;;;;33.90;29.63;;;;;;;16.40;100.00;164855.47;4990867;28;20395;-65
2022/09/13 02:50:12;;;;;;;34.65;29.10;;;;;;;16.29;100.00;164825.63;4990003;28;20093;-65
2022/09/13 02:52:51;;;;;;;36.67;29.92;;;;;;;16.22;100.00;164806.69;4990943;28;20037;-66
2022/09/13 02:55:35;;;;;;;39.60;30.20;;;;;;;16.21;100.00;164803.97;4989680;28;20569;-66
2022/09/13 02:58:12;;;;;;;38.53;31.13;;;;;;;16.01;100.00;164752.53;4990999;28;20097;-66
2022/09/13 03:00:38;;;;;;;36.53;28.88;;;;;;;15.96;100.00;164739.00;4989395;28;20043;-66
2022/09/13 03:03:07;;;;;;;37.05;30.55;;;;;;;16.01;100.00;164752.53;4991094;28;20482;-66
2022/09/13 03:05:32;;;;;;;32.20;28.65;;;;;;;16.00;100.00;164749.81;4989664;28;20038;-66
2022/09/13 03:07:58;;;;;;;35.28;29.90;;;;;;;15.94;100.00;164733.56;4991647;28;20182;-66
2022/09/13 03:10:30;;;;;;;34.70;30.13;;;;;;;15.91;100.00;164726.81;4993230;28;20049;-65
2022/09/13 03:13:29;;;;;;;37.50;30.52;;;;;;;15.75;100.00;164684.75;4994557;28;20026;-65
2022/09/13 03:16:24;;;;;;;39.33;32.90;;;;;;;15.93;100.00;164730.84;4992753;28;20132;-65
2022/09/13 03:19:11;;;;;;;33.65;29.30;;;;;;;15.92;100.00;164728.13;4993188;28;20034;-64
2022/09/13 03:22:10;;;;;;;35.85;30.58;;;;;;;15.89;100.00;164720.03;4994231;28;20097;-64
2022/09/13 03:24:48;;;;;;;38.10;30.38;;;;;;;15.82;100.00;164703.69;4993029;28;20105;-64
2022/09/13 03:27:32;;;;;;;35.50;30.35;;;;;;;15.82;100.00;164703.69;4994444;28;20089;-64
2022/09/13 03:30:05;;;;;;;40.40;32.75;;;;;;;15.84;100.00;164709.19;4992195;28;20141;-65
2022/09/13 03:33:09;;;;;;;36.00;30.27;;;;;;;15.84;100.00;164709.19;4994437;28;20034;-63
2022/09/13 03:35:56;;;;;;;34.00;30.23;;;;;;;15.89;100.00;164720.03;4992496;28;20076;-63
2022/09/13 03:38:31;;;;;;;37.42;32.63;;;;;;;15.90;100.00;164722.75;4993599;28;20026;-63
2022/09/13 03:41:04;;;;;;;40.90;32.78;;;;;;;15.93;100.00;164730.84;4992565;28;20413;-63
2022/09/13 03:43:43;;;;;;;40.42;33.85;;;;;;;15.94;100.00;164733.56;4992561;28;20026;-63
2022/09/13 03:46:15;;;;;;;38.33;30.80;;;;;;;16.00;100.00;164749.81;4993708;28;20034;-63
2022/09/13 03:48:41;;;;;;;38.08;29.75;;;;;;;16.00;100.00;164749.81;4992800;28;20029;-64
2022/09/13 03:51:08;;;;;;;35.17;29.27;;;;;;;16.04;100.00;164759.28;4993733;28;20019;-65
2022/09/13 03:53:38;;;;;;;36.08;30.40;;;;;;;16.04;100.00;164759.28;4991922;28;20559;-64
2022/09/13 03:56:15;;;;;;;35.70;32.00;;;;;;;16.01;100.00;164752.53;4993435;28;20030;-66
2022/09/13 03:58:41;;;;;;;37.75;31.17;;;;;;;16.02;100.00;164755.22;4992107;28;20478;-66
2022/09/13 04:01:07;;;;;;;38.17;33.15;;;;;;;16.02;100.00;164756.56;4993719;28;20077;-66
2022/09/13 04:03:32;;;;;;;40.42;27.42;;;;;;;16.02;100.00;164755.22;4992079;28;20030;-65
2022/09/13 04:05:57;;;;;;;33.53;29.58;;;;;;;16.01;100.00;164752.53;4993417;28;20026;-68
2022/09/13 04:08:23;;;;;;;32.92;28.90;;;;;;;15.99;100.00;164747.09;4993293;28;20026;-66
2022/09/13 04:10:50;;;;;;;33.90;28.73;;;;;;;15.98;100.00;164744.38;4992039;28;20383;-68
2022/09/13 04:13:16;;;;;;;38.38;29.10;;;;;;;15.97;100.00;164743.03;4992926;28;20037;-66
2022/09/13 04:15:41;;;;;;;35.20;29.90;;;;;;;15.97;100.00;164743.03;4991221;28;20406;-66
2022/09/13 04:18:07;;;;;;;35.17;30.20;;;;;;;15.96;100.00;164739.00;4992602;28;20037;-66
2022/09/13 04:20:34;;;;;;;34.78;28.02;;;;;;;15.89;100.00;164720.03;4991880;28;20034;-66
2022/09/13 04:23:00;;;;;;;33.15;27.17;;;;;;;15.95;100.00;164736.28;4992411;28;20022;-66
2022/09/13 04:25:25;;;;;;;34.13;29.15;;;;;;;15.91;100.00;164725.41;4991759;28;20053;-66
2022/09/13 04:27:55;;;;;;;34.83;27.00;;;;;;;15.92;100.00;164728.13;4993128;28;20026;-68
2022/09/13 04:30:20;;;;;;;34.65;28.85;;;;;;;15.92;100.00;164728.13;4991317;28;20054;-68
2022/09/13 04:32:46;;;;;;;31.13;26.85;;;;;;;15.91;100.00;164726.81;4992851;28;20081;-68
2022/09/13 04:35:11;;;;;;;31.80;28.20;;;;;;;15.89;100.00;164720.03;4991469;28;20532;-68
2022/09/13 04:37:37;;;;;;;32.17;25.73;;;;;;;15.88;100.00;164717.31;4991194;28;20433;-68
2022/09/13 04:40:05;;;;;;;31.13;27.80;;;;;;;15.86;100.00;164713.28;4990687;28;20042;-67
2022/09/13 04:42:30;;;;;;;36.45;29.63;;;;;;;15.86;100.00;164714.59;4993027;28;20026;-68
2022/09/13 04:44:55;;;;;;;33.45;28.63;;;;;;;15.83;100.00;164706.47;4990918;28;20043;-67
2022/09/13 04:47:21;;;;;;;35.00;29.05;;;;;;;15.94;100.00;164733.56;4992823;28;20041;-67
2022/09/13 04:49:47;;;;;;;32.78;25.95;;;;;;;16.25;100.00;164814.81;4991226;28;20038;-67
2022/09/13 04:52:13;;;;;;;36.22;29.45;;;;;;;16.35;100.00;164841.88;4992243;28;20033;-67
2022/09/13 04:54:38;;;;;;;33.58;27.88;;;;;;;16.40;100.00;164855.47;4991305;28;20141;-67
2022/09/13 04:57:03;;;;;;;37.80;30.77;;;;;;;16.41;100.00;164858.19;4992344;28;20026;-64
2022/09/13 04:59:29;;;;;;;38.63;32.55;;;;;;;16.44;100.00;164866.28;4990999;28;20081;-64
2022/09/13 05:01:54;;;;;;;40.88;32.00;;;;;;;16.44;100.00;164866.28;4992177;28;20478;-65
2022/09/13 05:04:20;;;;;;;32.47;26.05;;;;;;;16.42;100.00;164860.84;4991294;28;20410;-65
2022/09/13 05:06:47;;;;;;;36.55;27.92;;;;;;;16.43;100.00;164863.56;4992006;28;20026;-64
2022/09/13 05:09:13;;;;;;;34.28;28.25;;;;;;;16.40;100.00;164855.47;4990729;28;20591;-64
2022/09/13 05:11:39;;;;;;;31.33;27.95;;;;;;;16.29;100.00;164827.03;4992402;28;20541;-65
2022/09/13 05:14:05;;;;;;;37.60;27.00;;;;;;;16.21;100.00;164803.97;4990371;28;20046;-65
2022/09/13 05:16:32;;;;;;;33.10;28.20;;;;;;;16.18;100.00;164798.56;4992384;28;20110;-65
2022/09/13 05:18:58;;;;;;;29.83;25.50;;;;;;;16.19;100.00;164799.91;4990564;28;20034;-65
2022/09/13 05:21:24;;;;;;;31.02;26.42;;;;;;;16.16;100.00;164793.16;4992113;28;20029;-65
2022/09/13 05:23:51;;;;;;;33.00;27.75;;;;;;;16.17;100.00;164795.88;4991137;28;20117;-65
2022/09/13 05:26:17;;;;;;;35.25;28.77;;;;;;;16.21;100.00;164803.97;4992197;28;20032;-63
2022/09/13 05:28:43;;;;;;;41.17;34.63;;;;;;;16.22;100.00;164808.06;4990505;28;20105;-63
2022/09/13 05:31:15;;;;;;;45.80;33.53;;;;;;;16.25;100.00;164814.81;4990971;28;20409;-63
2022/09/13 05:33:40;;;;;;;38.78;30.92;;;;;;;16.28;100.00;164822.91;4990841;28;20054;-63
2022/09/13 05:36:06;;;;;;;37.25;29.48;;;;;;;16.29;100.00;164825.63;4991691;28;20081;-63
2022/09/13 05:38:31;;;;;;;36.88;30.55;;;;;;;16.30;100.00;164828.34;4990565;28;20497;-63
2022/09/13 05:41:00;;;;;;;38.05;31.73;;;;;;;16.38;100.00;164850.03;4991643;28;20064;-63
2022/09/13 05:43:27;;;;;;;38.85;32.13;;;;;;;16.47;100.00;164874.41;4991749;28;20018;-63
2022/09/13 05:46:01;;;;;;;48.10;38.30;;;;;;;16.53;100.00;164887.94;4990094;28;20043;-63
2022/09/13 05:48:26;;;;;;;38.20;31.70;;;;;;;16.38;100.00;164850.03;4991258;28;20097;-67
2022/09/13 05:50:51;;;;;;;41.95;36.17;;;;;;;16.31;100.00;164831.06;4979112;28;20030;-67
2022/09/13 05:53:17;;;;;;;41.03;34.03;;;;;;;16.44;100.00;164866.28;4986053;28;20384;-61
2022/09/13 05:55:42;;;;;;;44.00;36.50;;;;;;;16.38;100.00;164850.03;4990496;28;20034;-59
2022/09/13 05:58:07;;;;;;;50.25;38.10;;;;;;;16.42;100.00;164860.84;4991039;28;20027;-58
2022/09/13 06:00:33;;;;;;;44.47;37.50;;;;;;;16.47;100.00;164874.41;4990133;28;20058;-58
2022/09/13 06:02:58;;;;;;;48.03;40.08;;;;;;;16.62;100.00;164913.69;4991494;28;20045;-58
2022/09/13 06:05:24;;;;;;;41.95;36.55;;;;;;;16.70;100.00;164932.66;4989759;28;20038;-58
2022/09/13 06:07:49;;;;;;;42.38;34.92;;;;;;;16.69;100.00;164931.31;4991895;28;20026;-57
2022/09/13 06:10:15;;;;;;;45.60;37.60;;;;;;;16.73;100.00;164940.78;4990124;28;20501;-58
2022/09/13 06:12:40;;;;;;;49.65;37.30;;;;;;;16.88;100.00;164981.44;4991093;28;20057;-58
2022/09/13 06:15:06;;;;;;;39.13;32.88;;;;;;;16.99;100.00;165008.56;4989996;28;20034;-58
2022/09/13 06:17:31;;;;;;;44.92;38.20;;;;;;;17.11;100.00;165042.44;4991364;28;20080;-57
2022/09/13 06:19:56;;;;;;;43.67;36.63;;;;;;;17.17;100.00;165055.97;4989614;28;20038;-58
2022/09/13 06:22:22;;;;;;;38.42;33.53;;;;;;;17.20;100.00;165064.13;4991525;28;20034;-57
2022/09/13 06:24:47;;;;;;;37.08;32.83;;;;;;;17.30;100.00;165091.25;4990260;28;20516;-58
2022/09/13 06:27:13;;;;;;;47.80;35.60;;;;;;;17.48;100.00;165138.69;4991087;28;20026;-57
2022/09/13 06:29:38;;;;;;;40.58;34.15;;;;;;;17.53;100.00;165150.88;4989855;28;20510;-58
2022/09/13 06:32:04;;;;;;;44.45;35.55;;;;;;;17.63;100.00;165177.97;4991342;28;20031;-58
2022/09/13 06:34:29;;;;;;;40.30;31.98;;;;;;;17.64;100.00;165179.34;4989659;28;20092;-57
2022/09/13 06:36:55;;;;;;;36.58;32.72;;;;;;;17.66;100.00;165186.13;4991088;28;20414;-58
2022/09/13 06:39:20;;;;;;;46.17;35.10;;;;;;;17.66;100.00;165186.13;4990001;28;20039;-58
2022/09/13 06:41:45;;;;;;;39.65;31.60;;;;;;;17.87;100.00;165240.31;4992578;28;20378;-58
2022/09/13 06:44:11;;;;;;;38.08;31.40;;;;;;;17.95;100.00;165262.06;4993555;28;20449;-57
2022/09/13 06:46:37;;;;;;;34.03;30.27;;;;;;;17.95;100.00;165262.06;4995129;28;20030;-58
2022/09/13 06:49:05;;;;;;;33.70;29.67;;;;;;;17.98;100.00;165270.22;4993014;28;20379;-57
2022/09/13 06:51:31;;;;;;;36.17;29.85;;;;;;;18.00;100.00;165275.59;4994807;28;20516;-57
2022/09/13 06:53:57;;;;;;;33.70;29.45;;;;;;;17.94;100.00;165259.31;4993308;28;20117;-58
2022/09/13 06:56:25;;;;;;;36.47;29.65;;;;;;;17.85;100.00;165234.88;4994723;28;20027;-58
2022/09/13 06:58:54;;;;;;;39.35;34.15;;;;;;;17.89;100.00;165245.75;4993351;28;20100;-58
2022/09/13 07:01:22;;;;;;;35.10;28.80;;;;;;;17.94;100.00;165259.31;4994667;28;20125;-57
2022/09/13 07:03:50;;;;;;;35.58;30.38;;;;;;;17.91;100.00;165251.16;4989878;28;20022;-58
2022/09/13 07:06:18;;;;;;;32.85;28.30;;;;;;;17.90;100.00;165249.81;5012140;28;20417;-57
2022/09/13 07:08:45;;;;;;;32.05;28.45;;;;;;;18.02;100.00;165281.06;5012716;28;20046;-57
2022/09/13 07:11:12;;;;;;;29.27;26.25;;;;;;;18.05;100.00;165287.81;4995206;28;20025;-57
2022/09/13 07:13:37;;;;;;;31.60;28.13;;;;;;;18.05;100.00;165289.22;4993205;28;20080;-58
2022/09/13 07:16:06;;;;;;;32.72;29.13;;;;;;;18.11;100.00;165302.75;4994284;28;20022;-58
2022/09/13 07:18:31;;;;;;;39.75;32.17;;;;;;;18.15;100.00;165313.56;4992547;28;20512;-57
2022/09/13 07:21:05;;;;;;;32.53;28.58;;;;;;;18.23;100.00;165335.28;4994202;28;20026;-58
2022/09/13 07:23:32;;;;;;;33.05;29.40;;;;;;;18.34;100.00;165365.13;4992871;28;20172;-57
2022/09/13 07:26:03;;;;;;;32.72;29.15;;;;;;;18.33;100.00;165362.41;4993872;28;20022;-58
2022/09/13 07:28:36;;;;;;;33.65;29.92;;;;;;;18.32;100.00;165359.69;4994094;28;20410;-58
2022/09/13 07:31:06;;;;;;;34.90;29.08;;;;;;;18.33;100.00;165362.41;4973107;28;20113;-58
2022/09/13 07:33:31;;;;;;;31.20;27.35;;;;;;;18.34;100.00;165365.13;4973283;28;20031;-57
2022/09/13 07:35:58;;;;;;;31.75;28.20;;;;;;;18.43;100.00;165386.81;4994040;28;20026;-58
2022/09/13 07:38:24;;;;;;;31.50;28.10;;;;;;;18.61;100.00;165434.28;4994127;28;20038;-58
2022/09/13 07:40:57;;;;;;;30.33;27.10;;;;;;;18.62;100.00;165436.94;4992194;28;20044;-58
2022/09/13 07:43:23;;;;;;;34.75;27.92;;;;;;;18.75;100.00;165470.88;4994050;28;20061;-58
2022/09/13 07:46:15;;;;;;;31.05;27.83;;;;;;;18.68;100.00;165454.59;4992457;28;20042;-58
2022/09/13 07:48:42;;;;;;;29.83;26.67;;;;;;;18.79;100.00;165483.09;4972920;28;20031;-58
2022/09/13 07:51:16;;;;;;;33.42;27.48;;;;;;;18.81;100.00;165488.53;4974081;28;20438;-57
2022/09/13 07:53:43;;;;;;;30.15;24.45;;;;;;;18.86;100.00;165500.72;4972441;28;20110;-57
2022/09/13 07:56:20;;;;;;;32.80;29.05;;;;;;;18.92;100.00;165517.06;4973618;28;20031;-57
2022/09/13 07:58:48;;;;;;;30.23;26.08;;;;;;;18.98;100.00;165532.00;4971960;28;20030;-57
2022/09/13 08:01:24;;;;;;;27.80;24.15;;;;;;;19.05;100.00;165549.59;4974143;28;20160;-58
2022/09/13 08:04:00;;;;;;;36.25;27.02;;;;;;;19.08;100.00;165557.75;4972746;28;20046;-57
2022/09/13 08:06:28;;;;;;;47.17;26.30;;;;;;;19.09;100.00;165560.47;4974221;28;20037;-58
2022/09/13 08:08:54;;;;;;;33.25;26.00;;;;;;;19.06;100.00;165552.31;4972699;28;20101;-58
2022/09/13 08:11:21;;;;;;;31.85;27.83;;;;;;;19.09;100.00;165560.47;4973635;28;20470;-57
2022/09/13 08:13:50;;;;;;;31.40;26.25;;;;;;;19.18;100.00;165584.84;4972605;28;20031;-58
2022/09/13 08:16:18;;;;;;;33.70;27.80;;;;;;;19.13;100.00;165571.31;4973887;28;20069;-58
2022/09/13 08:18:45;;;;;;;32.70;25.13;;;;;;;19.12;100.00;165568.59;4972243;28;20030;-58
2022/09/13 08:21:10;;;;;;;33.33;26.02;;;;;;;19.22;100.00;165595.72;4973683;28;20046;-58
2022/09/13 08:23:36;;;;;;;28.70;25.13;;;;;;;19.23;100.00;165598.44;4969973;28;20621;-57
2022/09/13 08:26:02;;;;;;;25.52;22.95;;;;;;;19.28;100.00;165610.66;4993981;28;20026;-59
2022/09/13 08:28:28;;;;;;;32.15;24.27;;;;;;;19.33;100.00;165624.22;4993411;28;20452;-59
2022/09/13 08:30:53;;;;;;;25.58;20.73;;;;;;;19.36;100.00;165631.00;4990879;28;20058;-60
2022/09/13 08:33:19;;;;;;;29.42;22.67;;;;;;;19.56;100.00;165685.25;4991787;28;20030;-60
2022/09/13 08:35:51;;;;;;;24.23;18.92;;;;;;;19.68;100.00;165715.13;4991601;28;20042;-60
2022/09/13 08:38:17;;;;;;;26.58;21.13;;;;;;;19.81;100.00;165751.72;4992997;28;20026;-59
2022/09/13 08:40:49;;;;;;;29.30;20.25;;;;;;;20.00;100.00;165799.28;4991133;28;20529;-60
2022/09/13 08:43:38;;;;;;;26.90;18.80;;;;;;;20.13;100.00;165835.94;4992660;28;20028;-59
2022/09/13 08:46:26;;;;;;;23.98;19.85;;;;;;;20.10;100.00;165826.44;4988093;28;20137;-59
2022/09/13 08:48:57;;;;;;;28.73;21.35;;;;;;;20.18;100.00;165848.16;4991182;28;20034;-60
2022/09/13 08:51:46;;;;;;;26.08;19.25;;;;;;;20.22;100.00;165859.00;4992781;28;20053;-59
2022/09/13 08:54:13;;;;;;;24.70;20.17;;;;;;;20.25;100.00;165867.16;4991214;28;20046;-59
2022/09/13 08:56:48;;;;;;;25.50;17.30;;;;;;;20.28;100.00;165873.94;4992222;28;20034;-59
2022/09/13 08:59:43;;;;;;;20.98;16.35;;;;;;;20.28;100.00;165875.34;4991169;28;20457;-59
2022/09/13 09:02:17;;;;;;;22.45;17.45;;;;;;;20.36;100.00;165894.34;4991890;28;20553;-59
2022/09/13 09:04:55;;;;;;;24.67;15.43;;;;;;;20.48;100.00;165925.56;4991037;28;20034;-59
2022/09/13 09:07:27;;;;;;;18.92;13.90;;;;;;;20.58;100.00;165954.06;4992560;28;20553;-59
2022/09/13 09:09:58;;;;;;;17.17;15.32;;;;;;;20.68;100.00;165978.47;4987187;28;20101;-61
2022/09/13 09:12:53;;;;;;;22.63;15.63;;;;;;;20.83;100.00;166019.25;4992398;28;20030;-58
2022/09/13 09:15:23;;;;;;;19.02;13.65;;;;;;;20.99;100.00;166059.97;4990904;28;20043;-58
2022/09/13 09:17:59;;;;;;;15.43;12.35;;;;;;;21.08;100.00;166084.44;4992212;28;20066;-58
2022/09/13 09:20:33;;;;;;;17.30;11.63;;;;;;;21.23;100.00;166125.19;4990866;28;20505;-58
2022/09/13 09:23:20;;;;;;;13.75;12.02;;;;;;;21.32;100.00;166146.91;4992083;28;20110;-59
2022/09/13 09:25:46;;;;;;;18.05;12.50;;;;;;;21.34;100.00;166153.69;4990288;28;20056;-59
2022/09/13 09:28:15;;;;;;;14.10;11.88;;;;;;;21.37;100.00;166160.47;4991925;28;20967;-60
2022/09/13 09:31:07;;;;;;;14.57;12.40;;;;;;;21.27;100.00;166133.31;4990508;28;20248;-63
2022/09/13 09:33:32;;;;;;;23.77;11.73;;;;;;;21.27;100.00;166133.31;4987155;28;20100;-63
2022/09/13 09:36:17;;;;;;;16.80;12.10;;;;;;;21.28;100.00;166136.03;4990280;28;20076;-61
2022/09/13 09:38:43;;;;;;;22.45;12.38;;;;;;;21.40;100.00;166168.66;4971012;28;20027;-62
2022/09/13 09:41:26;;;;;;;21.27;10.10;;;;;;;21.53;100.00;166202.56;4972079;28;20038;-59
2022/09/13 09:44:00;;;;;;;15.60;10.00;;;;;;;21.54;100.00;166206.69;4971416;28;20062;-60
2022/09/13 09:46:30;;;;;;;14.35;8.05;;;;;;;21.55;100.00;166208.00;4972182;28;20022;-60
2022/09/13 09:50:07;;;;;;;13.75;8.52;;;;;;;21.65;100.00;166235.25;4995587;28;20068;-59
2022/09/13 09:51:50;;;;;;;8.82;7.97;;;;;;;21.73;100.00;166254.25;4993466;28;20492;-63
2022/09/13 09:54:16;;;;;;;14.68;9.55;;;;;;;21.77;100.00;166266.50;4989706;28;20042;-60
2022/09/13 09:56:51;;;;;;;11.90;7.90;;;;;;;21.96;100.00;166316.75;4991856;28;20033;-59
2022/09/13 09:59:27;;;;;;;11.07;6.88;;;;;;;22.03;100.00;166335.78;4990159;28;20098;-62
2022/09/13 10:01:56;;;;;;;9.60;6.38;;;;;;;22.01;100.00;166328.94;4991390;28;20429;-59
2022/09/13 10:04:23;;;;;;;7.28;5.60;;;;;;;21.62;100.00;166225.75;4990346;28;20038;-58
2022/09/13 10:06:50;;;;;;;6.65;5.90;;;;;;;21.66;100.00;166236.59;4991221;28;20030;-58
2022/09/13 10:09:20;;;;;;;8.07;5.90;;;;;;;21.55;100.00;166209.41;4989797;28;20049;-62
2022/09/13 10:11:55;;;;;;;8.75;7.03;;;;;;;21.80;100.00;166273.28;4991971;28;20022;-63
2022/09/13 10:14:46;;;;;;;7.45;6.68;;;;;;;22.02;100.00;166331.66;4989113;28;20054;-59
2022/09/13 10:17:24;;;;;;;8.40;7.07;;;;;;;22.18;100.00;166375.16;4992851;28;20098;-59
2022/09/13 10:19:53;;;;;;;10.15;6.68;;;;;;;22.13;100.00;166360.19;4993767;28;20514;-59
2022/09/13 10:22:18;;;;;;;12.30;5.90;;;;;;;22.08;100.00;166347.97;4993314;28;20061;-59
2022/09/13 10:24:44;;;;;;;8.75;6.03;;;;;;;22.01;100.00;166328.94;4991492;28;20049;-59
2022/09/13 10:27:23;;;;;;;5.30;4.78;;;;;;;21.97;100.00;166318.09;4994185;28;20034;-59
2022/09/13 10:29:54;;;;;;;8.05;5.18;;;;;;;22.00;100.00;166326.28;4992809;28;20065;-59
2022/09/13 10:32:20;;;;;;;5.90;5.25;;;;;;;22.11;100.00;166354.78;4993752;28;20030;-59
2022/09/13 10:34:48;;;;;;;6.47;5.43;;;;;;;22.38;100.00;166426.75;4992248;28;20057;-59
2022/09/13 10:37:21;;;;;;;9.00;6.40;;;;;;;22.62;100.00;166489.34;4994227;28;20041;-59
2022/09/13 10:39:58;;;;;;;9.40;5.28;;;;;;;22.95;100.00;166576.34;4991564;28;20566;-59
2022/09/13 10:42:26;;;;;;;6.63;4.73;;;;;;;23.20;100.00;166641.59;4993469;28;20109;-59
2022/09/13 10:44:54;;;;;;;8.48;5.18;;;;;;;23.12;100.00;166622.53;4992155;28;20477;-59
2022/09/13 10:47:34;;;;;;;7.83;4.20;;;;;;;22.96;100.00;166579.06;4993660;28;20030;-59
2022/09/13 10:50:18;;;;;;;4.82;4.07;;;;;;;22.87;100.00;166554.59;4992921;28;20042;-59
2022/09/13 10:53:04;;;;;;;4.43;3.80;;;;;;;22.93;100.00;166570.88;4994410;28;20486;-59
2022/09/13 10:55:39;;;;;;;8.45;3.70;;;;;;;23.00;100.00;166589.91;4993249;28;20042;-59
2022/09/13 10:58:04;;;;;;;5.20;3.78;;;;;;;23.07;100.00;166608.94;4994188;28;20693;-59
2022/09/13 11:01:06;;;;;;;7.40;3.55;;;;;;;22.89;100.00;166560.03;4992661;28;20173;-59
2022/09/13 11:03:37;;;;;;;3.78;2.83;;;;;;;22.77;100.00;166528.78;4993113;28;20150;-59
2022/09/13 11:06:24;;;;;;;4.22;3.83;;;;;;;22.73;100.00;166519.25;4994113;28;20030;-59
2022/09/13 11:09:14;;;;;;;4.03;2.88;;;;;;;22.78;100.00;166531.50;4992832;28;20052;-59
2022/09/13 11:11:52;;;;;;;7.93;2.63;;;;;;;22.79;100.00;166535.56;4994607;28;20448;-59
2022/09/13 11:14:32;;;;;;;13.20;3.67;;;;;;;22.86;100.00;166551.88;4992862;28;20062;-59
2022/09/13 11:17:23;;;;;;;5.88;4.07;;;;;;;22.74;100.00;166522.00;4993914;28;20030;-59
2022/09/13 11:20:06;;;;;;;4.90;2.45;;;;;;;22.81;100.00;166541.00;4992888;28;20100;-59
2022/09/13 11:22:50;;;;;;;4.40;3.30;;;;;;;22.69;100.00;166508.34;4994114;28;20456;-59
2022/09/13 11:25:47;;;;;;;4.65;2.35;;;;;;;22.60;100.00;166483.94;4992456;28;20501;-59